Time;durP1;ratioP1;P1;durP2;ratioP2;P2;SDS_P1;SDS_P2;PMS_P1;PMS_P2;Temp;Humidity;BMP_temperature;BMP_pressure;BME280_temperature;BME280_humidity;BME280_pressure;Samples;Min_cycle;Max_cycle;Signal;HPM_P1;HPM_P2
2023/08/26 00:02:04;;;;;;;19.58;13.90;;;18.00;99.30;;;;;;5028094;28;20034;-71
2023/08/26 00:04:29;;;;;;;17.33;13.23;;;18.00;99.40;;;;;;5030872;28;20413;-71
2023/08/26 00:06:55;;;;;;;18.42;14.25;;;18.00;99.30;;;;;;5023597;28;20442;-70
2023/08/26 00:09:20;;;;;;;23.75;14.23;;;17.80;99.30;;;;;;5038332;28;20079;-70
2023/08/26 00:11:46;;;;;;;19.48;15.15;;;17.80;99.30;;;;;;5033574;28;20056;-70
2023/08/26 00:14:11;;;;;;;20.60;15.63;;;17.70;99.30;;;;;;5029788;28;20442;-71
2023/08/26 00:16:37;;;;;;;27.30;16.08;;;17.70;99.30;;;;;;5035361;28;20042;-71
2023/08/26 00:19:02;;;;;;;22.17;17.80;;;17.60;99.40;;;;;;5033543;28;20030;-71
2023/08/26 00:21:28;;;;;;;24.45;17.35;;;17.60;99.50;;;;;;5031709;28;20487;-70
2023/08/26 00:23:54;;;;;;;31.65;18.42;;;17.70;99.60;;;;;;5025940;28;20059;-70
2023/08/26 00:26:21;;;;;;;27.00;19.05;;;17.70;99.60;;;;;;5030544;28;20022;-71
2023/08/26 00:28:46;;;;;;;29.00;20.00;;;17.70;99.70;;;;;;5026585;28;20038;-72
2023/08/26 00:31:12;;;;;;;28.80;19.88;;;17.80;99.80;;;;;;5026790;28;20029;-70
2023/08/26 00:33:37;;;;;;;32.10;21.25;;;17.80;99.90;;;;;;5032927;28;20077;-70
2023/08/26 00:36:03;;;;;;;34.80;22.45;;;17.90;99.90;;;;;;5035620;28;20397;-70
2023/08/26 00:38:28;;;;;;;35.05;23.33;;;17.90;99.90;;;;;;5023625;28;20462;-71
2023/08/26 00:40:54;;;;;;;34.45;23.15;;;18.00;99.90;;;;;;5031251;28;20040;-70
2023/08/26 00:43:20;;;;;;;41.80;24.90;;;18.00;99.90;;;;;;5023005;28;20044;-70
2023/08/26 00:45:48;;;;;;;37.45;23.17;;;18.00;99.90;;;;;;5035943;28;20453;-71
2023/08/26 00:48:15;;;;;;;36.40;22.98;;;18.00;99.90;;;;;;5023325;28;20022;-70
2023/08/26 00:50:44;;;;;;;34.35;23.15;;;18.00;99.90;;;;;;5028511;28;20036;-70
2023/08/26 00:53:11;;;;;;;36.72;21.75;;;18.10;99.90;;;;;;5026555;28;20013;-70
2023/08/26 00:55:39;;;;;;;36.05;23.65;;;18.10;99.80;;;;;;5023266;28;20053;-70
2023/08/26 00:58:05;;;;;;;34.08;22.40;;;18.10;99.80;;;;;;5026961;28;20449;-71
2023/08/26 01:00:33;;;;;;;34.15;23.08;;;18.10;99.80;;;;;;5024112;28;20133;-70
2023/08/26 01:02:58;;;;;;;34.88;23.67;;;18.10;99.80;;;;;;5025764;28;20026;-71
2023/08/26 01:05:24;;;;;;;36.45;23.05;;;18.10;99.80;;;;;;5033677;28;20468;-70
2023/08/26 01:07:50;;;;;;;36.00;24.30;;;18.10;99.70;;;;;;5031275;28;20048;-71
2023/08/26 01:10:16;;;;;;;41.97;25.30;;;18.10;99.70;;;;;;5019815;28;20112;-71
2023/08/26 01:12:57;;;;;;;37.25;24.65;;;18.00;99.60;;;;;;5027535;28;20072;-70
2023/08/26 01:15:25;;;;;;;41.70;25.38;;;18.00;99.70;;;;;;5020901;28;20061;-70
2023/08/26 01:17:51;;;;;;;40.22;25.73;;;18.00;99.70;;;;;;5028668;28;20045;-71
2023/08/26 01:20:17;;;;;;;36.83;25.20;;;17.90;99.70;;;;;;5035591;28;20261;-71
2023/08/26 01:22:45;;;;;;;40.17;25.83;;;17.80;99.70;;;;;;5020647;28;20386;-71
2023/08/26 01:25:11;;;;;;;42.72;26.25;;;17.70;99.70;;;;;;5027502;28;20489;-71
2023/08/26 01:27:36;;;;;;;47.50;28.45;;;17.70;99.80;;;;;;5025556;28;20083;-70
2023/08/26 01:30:02;;;;;;;49.70;28.48;;;17.70;99.90;;;;;;5016405;28;20038;-71
2023/08/26 01:32:46;;;;;;;52.08;29.13;;;17.70;99.90;;;;;;5017630;28;20025;-70
2023/08/26 01:35:22;;;;;;;47.25;27.73;;;17.60;99.90;;;;;;5018263;28;20490;-71
2023/08/26 01:37:48;;;;;;;58.40;30.77;;;17.60;99.90;;;;;;5030838;28;20038;-70
2023/08/26 01:40:15;;;;;;;56.95;30.25;;;17.60;99.90;;;;;;5034336;28;20436;-70
2023/08/26 01:42:42;;;;;;;53.90;30.52;;;17.60;99.90;;;;;;5028628;28;20088;-70
2023/08/26 01:45:08;;;;;;;54.65;31.83;;;17.60;99.90;;;;;;5021031;28;20039;-70
2023/08/26 01:47:33;;;;;;;59.53;32.60;;;17.50;99.90;;;;;;5021456;28;20032;-70
2023/08/26 01:49:59;;;;;;;57.92;32.50;;;17.50;99.90;;;;;;5014324;28;20029;-70
2023/08/26 01:52:24;;;;;;;56.72;32.15;;;17.40;99.90;;;;;;5029334;28;20029;-70
2023/08/26 01:54:50;;;;;;;66.05;34.72;;;17.40;99.90;;;;;;5031352;28;20025;-70
2023/08/26 01:57:16;;;;;;;69.43;34.15;;;17.40;99.90;;;;;;5022020;28;20514;-70
2023/08/26 01:59:42;;;;;;;69.88;34.15;;;17.30;99.90;;;;;;5029702;28;20110;-71
2023/08/26 02:02:07;;;;;;;69.85;34.00;;;17.20;99.90;;;;;;5022185;28;20056;-71
2023/08/26 02:04:33;;;;;;;69.05;33.53;;;17.10;99.90;;;;;;5024758;28;20030;-70
2023/08/26 02:06:58;;;;;;;63.65;34.03;;;17.10;99.90;;;;;;5035061;28;20118;-70
2023/08/26 02:09:24;;;;;;;70.90;34.60;;;17.10;99.90;;;;;;5032318;28;20043;-70
2023/08/26 02:11:49;;;;;;;83.95;36.08;;;17.10;99.90;;;;;;5028722;28;20072;-70
2023/08/26 02:14:15;;;;;;;80.95;35.33;;;17.00;99.90;;;;;;5029723;28;20025;-70
2023/08/26 02:16:40;;;;;;;77.47;35.15;;;17.00;99.90;;;;;;5033117;28;20539;-71
2023/08/26 02:19:06;;;;;;;85.38;36.42;;;17.00;99.90;;;;;;5031668;28;20086;-70
2023/08/26 02:21:31;;;;;;;83.72;35.75;;;16.90;99.90;;;;;;5030355;28;20394;-71
2023/08/26 02:23:57;;;;;;;70.90;33.85;;;16.90;99.90;;;;;;5037129;28;20025;-70
2023/08/26 02:26:22;;;;;;;84.53;35.85;;;16.80;99.90;;;;;;5034063;28;20103;-71
2023/08/26 02:28:48;;;;;;;78.32;36.22;;;16.80;99.90;;;;;;5027068;28;20044;-71
2023/08/26 02:31:13;;;;;;;88.45;38.20;;;16.80;99.90;;;;;;5024904;28;20201;-70
2023/08/26 02:33:39;;;;;;;99.68;39.10;;;16.90;99.90;;;;;;5034632;28;20030;-71
2023/08/26 02:36:04;;;;;;;96.22;40.63;;;16.90;99.90;;;;;;5025981;28;20413;-70
2023/08/26 02:38:31;;;;;;;98.65;39.20;;;17.00;99.90;;;;;;5026433;28;20505;-71
2023/08/26 02:40:57;;;;;;;104.97;41.33;;;17.00;99.90;;;;;;5029125;28;20036;-70
2023/08/26 02:43:23;;;;;;;118.88;45.38;;;17.10;99.90;;;;;;5031575;28;20038;-71
2023/08/26 02:45:53;;;;;;;116.07;45.42;;;17.30;99.90;;;;;;5024009;28;20083;-70
2023/08/26 02:48:19;;;;;;;116.90;45.17;;;17.30;99.90;;;;;;5024261;28;20034;-71
2023/08/26 02:50:45;;;;;;;119.38;45.22;;;17.40;99.90;;;;;;5024704;28;20463;-70
2023/08/26 02:53:10;;;;;;;122.57;45.50;;;17.40;99.90;;;;;;5023819;28;20109;-70
2023/08/26 02:55:37;;;;;;;119.07;43.85;;;17.50;99.90;;;;;;5030744;28;20036;-70
2023/08/26 02:58:02;;;;;;;127.65;46.92;;;17.50;99.90;;;;;;5032941;28;20068;-71
2023/08/26 03:00:28;;;;;;;126.93;48.53;;;17.50;99.90;;;;;;5029171;28;20466;-70
2023/08/26 03:02:53;;;;;;;114.13;44.70;;;17.50;99.90;;;;;;5029072;28;20042;-71
2023/08/26 03:05:19;;;;;;;123.65;45.55;;;17.60;99.90;;;;;;5027438;28;20045;-71
2023/08/26 03:07:44;;;;;;;125.60;46.03;;;17.50;99.90;;;;;;5025421;28;20111;-72
2023/08/26 03:10:10;;;;;;;122.88;45.88;;;17.60;99.90;;;;;;5025365;28;20053;-71
2023/08/26 03:12:35;;;;;;;111.35;45.92;;;17.60;99.90;;;;;;5029378;28;20108;-70
2023/08/26 03:15:01;;;;;;;114.03;45.95;;;17.60;99.90;;;;;;5020786;28;20030;-71
2023/08/26 03:17:26;;;;;;;107.75;44.13;;;17.60;99.90;;;;;;5026237;28;20084;-70
2023/08/26 03:19:52;;;;;;;124.40;45.10;;;17.70;99.90;;;;;;5028161;28;20032;-70
2023/08/26 03:22:17;;;;;;;112.20;44.80;;;17.60;99.90;;;;;;5024745;28;20387;-71
2023/08/26 03:24:43;;;;;;;120.53;47.22;;;17.70;99.90;;;;;;5025387;28;20052;-70
2023/08/26 03:27:08;;;;;;;114.28;46.75;;;17.70;99.90;;;;;;5026987;28;20032;-71
2023/08/26 03:29:34;;;;;;;126.57;48.25;;;17.70;99.90;;;;;;5023128;28;20029;-72
2023/08/26 03:31:59;;;;;;;119.53;46.30;;;17.80;99.90;;;;;;5024599;28;20021;-71
2023/08/26 03:34:25;;;;;;;120.90;46.42;;;17.70;99.90;;;;;;5026976;28;20104;-70
2023/08/26 03:36:50;;;;;;;117.88;47.17;;;17.70;99.90;;;;;;5020083;28;20477;-71
2023/08/26 03:39:16;;;;;;;122.85;48.05;;;17.70;99.90;;;;;;5024005;28;20082;-71
2023/08/26 03:41:41;;;;;;;109.25;44.78;;;17.70;99.90;;;;;;5037979;28;20052;-70
2023/08/26 03:44:07;;;;;;;107.25;45.28;;;17.70;99.90;;;;;;5027639;28;20371;-70
2023/08/26 03:46:32;;;;;;;120.53;47.92;;;17.70;99.90;;;;;;5021303;28;20068;-71
2023/08/26 03:48:58;;;;;;;108.18;47.05;;;17.80;99.90;;;;;;5022954;28;20029;-70
2023/08/26 03:51:23;;;;;;;104.13;46.03;;;17.70;99.90;;;;;;5022625;28;20034;-70
2023/08/26 03:53:49;;;;;;;109.22;46.95;;;17.70;99.90;;;;;;5027155;28;20025;-71
2023/08/26 03:56:14;;;;;;;104.50;44.95;;;17.70;99.90;;;;;;5033236;28;20017;-70
2023/08/26 03:58:40;;;;;;;102.03;45.15;;;17.80;99.90;;;;;;5022219;28;20485;-70
2023/08/26 04:01:06;;;;;;;100.10;45.83;;;17.80;99.90;;;;;;5031106;28;20029;-71
2023/08/26 04:03:32;;;;;;;95.07;44.05;;;17.80;99.90;;;;;;5026958;28;20045;-71
2023/08/26 04:06:02;;;;;;;96.00;44.50;;;17.80;99.90;;;;;;5031394;28;20033;-70
2023/08/26 04:08:29;;;;;;;89.78;44.17;;;17.80;99.90;;;;;;5021295;28;20513;-71
2023/08/26 04:10:56;;;;;;;94.40;44.97;;;17.80;99.90;;;;;;5035426;28;20528;-70
2023/08/26 04:13:26;;;;;;;94.35;43.70;;;17.80;99.90;;;;;;5027466;28;20032;-71
2023/08/26 04:15:58;;;;;;;88.32;44.60;;;17.80;99.90;;;;;;5028090;28;20064;-71
2023/08/26 04:18:24;;;;;;;89.28;43.20;;;17.90;99.90;;;;;;5020117;28;20029;-70
2023/08/26 04:20:50;;;;;;;86.10;43.08;;;17.90;99.90;;;;;;5029808;28;20042;-71
2023/08/26 04:23:16;;;;;;;85.05;42.42;;;17.90;99.90;;;;;;5020411;28;20033;-71
2023/08/26 04:25:42;;;;;;;82.30;41.75;;;17.90;99.90;;;;;;5027399;28;20050;-70
2023/08/26 04:28:08;;;;;;;83.50;42.53;;;17.90;99.90;;;;;;5027077;28;20030;-70
2023/08/26 04:30:36;;;;;;;75.55;39.75;;;17.90;99.90;;;;;;5025582;28;20470;-69
2023/08/26 04:33:01;;;;;;;72.57;38.03;;;17.90;99.90;;;;;;5024589;28;20018;-69
2023/08/26 04:35:27;;;;;;;72.78;38.70;;;17.90;99.90;;;;;;5026362;28;20159;-69
2023/08/26 04:37:52;;;;;;;74.25;39.42;;;18.00;99.90;;;;;;5024683;28;20033;-68
2023/08/26 04:40:18;;;;;;;70.85;37.03;;;18.00;99.90;;;;;;5034560;28;20032;-69
2023/08/26 04:42:44;;;;;;;67.72;36.42;;;17.90;99.80;;;;;;5035623;28;20029;-70
2023/08/26 04:45:09;;;;;;;63.22;35.03;;;18.00;99.80;;;;;;5032118;28;20043;-70
2023/08/26 04:47:36;;;;;;;60.75;33.10;;;17.90;99.70;;;;;;5022116;28;20021;-69
2023/08/26 04:50:03;;;;;;;58.80;33.80;;;17.90;99.50;;;;;;5023968;28;20025;-69
2023/08/26 04:52:29;;;;;;;56.38;32.50;;;17.90;99.40;;;;;;5020464;28;20083;-70
2023/08/26 04:54:54;;;;;;;53.45;31.25;;;18.00;99.30;;;;;;5032358;28;20030;-69
2023/08/26 04:57:20;;;;;;;53.63;31.75;;;18.00;99.10;;;;;;5046655;28;20032;-69
2023/08/26 04:59:45;;;;;;;50.75;30.92;;;17.90;99.00;;;;;;5031863;28;20045;-69
2023/08/26 05:02:11;;;;;;;55.40;31.20;;;18.00;98.90;;;;;;5032332;28;20021;-70
2023/08/26 05:04:37;;;;;;;51.28;30.75;;;17.90;98.70;;;;;;5031576;28;20038;-71
2023/08/26 05:07:03;;;;;;;50.78;30.92;;;18.00;98.90;;;;;;5026819;28;20109;-69
2023/08/26 05:09:29;;;;;;;46.13;29.60;;;18.00;98.80;;;;;;5037139;28;20472;-74
2023/08/26 05:11:57;;;;;;;55.78;31.65;;;18.00;98.70;;;;;;5035828;28;20108;-69
2023/08/26 05:14:23;;;;;;;54.00;32.03;;;18.00;98.70;;;;;;5031249;28;20116;-69
2023/08/26 05:16:48;;;;;;;55.78;32.92;;;18.00;98.70;;;;;;5039138;28;20021;-69
2023/08/26 05:19:14;;;;;;;50.50;31.30;;;18.00;98.70;;;;;;5036574;28;20032;-70
2023/08/26 05:21:39;;;;;;;51.70;30.70;;;18.00;98.70;;;;;;5030984;28;20029;-70
2023/08/26 05:24:05;;;;;;;52.80;32.50;;;18.00;98.60;;;;;;5024699;28;20029;-69
2023/08/26 05:26:31;;;;;;;52.50;32.53;;;18.00;98.60;;;;;;5028559;28;20026;-69
2023/08/26 05:28:57;;;;;;;51.60;32.75;;;18.00;98.50;;;;;;5031274;28;20035;-72
2023/08/26 05:31:22;;;;;;;48.80;31.83;;;17.90;98.50;;;;;;5031343;28;20049;-72
2023/08/26 05:33:47;;;;;;;49.72;32.20;;;18.00;98.60;;;;;;5032659;28;20026;-73
2023/08/26 05:36:13;;;;;;;49.28;30.98;;;17.90;98.60;;;;;;5034286;28;20026;-78
2023/08/26 05:38:38;;;;;;;52.85;31.55;;;18.00;98.50;;;;;;5021781;28;20064;-71
2023/08/26 05:41:04;;;;;;;52.67;32.53;;;18.00;98.50;;;;;;5035376;28;20033;-73
2023/08/26 05:43:30;;;;;;;47.08;30.10;;;18.00;98.40;;;;;;5028939;28;20482;-72
2023/08/26 05:45:58;;;;;;;48.05;28.40;;;18.00;98.30;;;;;;5020592;28;20083;-72
2023/08/26 05:48:23;;;;;;;47.38;29.48;;;18.00;98.10;;;;;;5029726;28;20038;-73
2023/08/26 05:50:49;;;;;;;40.35;28.50;;;18.20;97.90;;;;;;5024748;28;20030;-73
2023/08/26 05:53:14;;;;;;;39.75;28.83;;;18.20;97.70;;;;;;5025995;28;20037;-72
2023/08/26 05:55:41;;;;;;;42.67;27.27;;;18.20;97.40;;;;;;5028860;28;20068;-72
2023/08/26 05:58:07;;;;;;;39.38;25.65;;;18.30;97.20;;;;;;5027844;28;20065;-73
2023/08/26 06:00:33;;;;;;;39.08;25.98;;;18.30;96.90;;;;;;5021963;28;20084;-73
2023/08/26 06:02:59;;;;;;;33.85;24.73;;;18.20;96.70;;;;;;5026845;28;20029;-73
2023/08/26 06:05:24;;;;;;;33.70;24.35;;;18.20;96.60;;;;;;5029196;28;20080;-73
2023/08/26 06:07:53;;;;;;;34.20;24.08;;;18.30;96.80;;;;;;5019033;28;20065;-73
2023/08/26 06:10:19;;;;;;;33.95;22.90;;;18.20;96.40;;;;;;5024503;28;20475;-74
2023/08/26 06:12:45;;;;;;;31.95;22.85;;;18.20;96.20;;;;;;5036362;28;20047;-73
2023/08/26 06:15:10;;;;;;;29.77;21.27;;;18.10;95.70;;;;;;5020001;28;20030;-73
2023/08/26 06:17:36;;;;;;;28.52;20.05;;;18.00;95.70;;;;;;5029431;28;20879;-73
2023/08/26 06:20:05;;;;;;;25.00;19.52;;;18.00;95.40;;;;;;5025905;28;20319;-73
2023/08/26 06:22:31;;;;;;;25.23;18.63;;;18.00;95.10;;;;;;5030451;28;20478;-73
2023/08/26 06:24:56;;;;;;;25.73;17.17;;;18.00;94.70;;;;;;5025964;28;20096;-74
2023/08/26 06:27:23;;;;;;;23.80;16.42;;;17.90;94.40;;;;;;5033496;28;20037;-74
2023/08/26 06:29:53;;;;;;;23.63;16.13;;;17.90;94.40;;;;;;5031929;28;20111;-74
2023/08/26 06:32:19;;;;;;;21.70;15.77;;;17.80;94.40;;;;;;5019956;28;20025;-73
2023/08/26 06:34:44;;;;;;;23.50;15.25;;;17.80;94.50;;;;;;5016765;28;20073;-74
2023/08/26 06:37:10;;;;;;;21.23;15.25;;;17.80;94.40;;;;;;5024481;28;20061;-72
2023/08/26 06:39:35;;;;;;;17.85;13.98;;;17.80;94.50;;;;;;5020614;28;20038;-72
2023/08/26 06:42:01;;;;;;;23.95;14.50;;;17.90;94.60;;;;;;5030444;28;20021;-72
2023/08/26 06:44:26;;;;;;;19.85;14.02;;;17.90;94.30;;;;;;5023712;28;20485;-71
2023/08/26 06:46:51;;;;;;;16.77;12.30;;;17.80;93.50;;;;;;5026573;28;20029;-71
2023/08/26 06:49:17;;;;;;;17.15;11.75;;;18.00;93.40;;;;;;5023295;28;20682;-71
2023/08/26 06:51:42;;;;;;;15.77;11.02;;;18.10;92.90;;;;;;5024821;28;20448;-70
2023/08/26 06:54:08;;;;;;;14.95;11.45;;;18.10;92.10;;;;;;5031068;28;20034;-74
2023/08/26 06:56:33;;;;;;;14.05;11.23;;;18.20;92.30;;;;;;5032081;28;20033;-70
2023/08/26 06:58:59;;;;;;;17.98;10.48;;;18.20;92.40;;;;;;5023673;28;20042;-70
2023/08/26 07:01:24;;;;;;;16.65;11.40;;;18.30;91.90;;;;;;5018763;28;20080;-70
2023/08/26 07:03:50;;;;;;;17.40;10.18;;;18.20;91.70;;;;;;5022815;28;20048;-70
2023/08/26 07:06:15;;;;;;;18.08;10.50;;;18.20;91.20;;;;;;5013715;28;20112;-71
2023/08/26 07:08:41;;;;;;;14.93;10.15;;;18.30;91.10;;;;;;5024605;28;20026;-72
2023/08/26 07:11:06;;;;;;;16.08;10.25;;;18.40;91.20;;;;;;5030163;28;20104;-71
2023/08/26 07:13:32;;;;;;;12.93;8.95;;;18.50;91.20;;;;;;5025625;28;20030;-70
2023/08/26 07:15:57;;;;;;;13.00;8.63;;;18.60;90.80;;;;;;5016352;28;20024;-71
2023/08/26 07:18:23;;;;;;;14.95;9.15;;;18.60;90.00;;;;;;5023228;28;20036;-70
2023/08/26 07:20:48;;;;;;;13.27;8.50;;;18.60;89.50;;;;;;5017855;28;20072;-71
2023/08/26 07:23:14;;;;;;;11.48;7.63;;;18.60;89.30;;;;;;5019946;28;20112;-71
2023/08/26 07:25:41;;;;;;;14.60;6.80;;;18.60;89.50;;;;;;5016951;28;20110;-69
2023/08/26 07:28:07;;;;;;;11.05;6.93;;;18.60;88.00;;;;;;5023040;28;20033;-69
2023/08/26 07:30:33;;;;;;;9.35;6.18;;;18.80;88.10;;;;;;5010335;28;20041;-73
2023/08/26 07:32:58;;;;;;;11.10;7.28;;;19.00;87.90;;;;;;5029028;28;20024;-74
2023/08/26 07:35:24;;;;;;;9.90;5.65;;;19.10;87.60;;;;;;5019287;28;20075;-76
2023/08/26 07:37:49;;;;;;;9.23;5.40;;;19.10;86.80;;;;;;5021384;28;20551;-72
2023/08/26 07:40:15;;;;;;;11.07;5.85;;;19.10;85.90;;;;;;5016058;28;20517;-70
2023/08/26 07:42:42;;;;;;;10.43;5.40;;;19.30;86.80;;;;;;5022064;28;20480;-73
2023/08/26 07:45:08;;;;;;;8.38;5.47;;;19.40;86.40;;;;;;5029229;28;20026;-73
2023/08/26 07:47:33;;;;;;;11.02;5.68;;;19.50;86.20;;;;;;5036229;28;20022;-73
2023/08/26 07:49:59;;;;;;;10.25;5.82;;;19.40;85.00;;;;;;5020128;28;20434;-73
2023/08/26 07:52:24;;;;;;;10.77;5.35;;;19.30;84.70;;;;;;5020604;28;20378;-73
2023/08/26 07:54:50;;;;;;;10.57;5.05;;;19.30;85.00;;;;;;5033249;28;20072;-73
2023/08/26 07:57:15;;;;;;;9.82;5.30;;;19.30;85.50;;;;;;5034182;28;20060;-73
2023/08/26 07:59:40;;;;;;;11.55;5.05;;;19.30;84.50;;;;;;5025328;28;20064;-73
2023/08/26 08:02:06;;;;;;;8.77;4.82;;;19.40;85.20;;;;;;5028981;28;20068;-73
2023/08/26 08:04:31;;;;;;;9.52;4.85;;;19.30;84.40;;;;;;5032566;28;20034;-73
2023/08/26 08:06:57;;;;;;;8.77;5.22;;;19.20;85.90;;;;;;5028912;28;20033;-73
2023/08/26 08:09:22;;;;;;;9.65;4.60;;;18.90;86.20;;;;;;5018376;28;20462;-73
2023/08/26 08:11:48;;;;;;;8.00;4.47;;;18.70;86.80;;;;;;5026318;28;20029;-73
2023/08/26 08:14:13;;;;;;;9.32;5.22;;;18.50;86.80;;;;;;5012502;28;20387;-73
2023/08/26 08:16:39;;;;;;;8.73;5.18;;;18.40;88.00;;;;;;5022898;28;20033;-73
2023/08/26 08:19:04;;;;;;;10.82;6.35;;;18.10;88.50;;;;;;5047358;28;20550;-73
2023/08/26 08:21:30;;;;;;;8.48;6.18;;;17.90;89.70;;;;;;5041731;28;20095;-72
2023/08/26 08:23:55;;;;;;;9.57;5.95;;;17.70;90.40;;;;;;5040142;28;20028;-73
2023/08/26 08:26:20;;;;;;;13.55;6.43;;;17.60;91.30;;;;;;5025922;28;20033;-73
2023/08/26 08:28:46;;;;;;;10.50;6.93;;;17.50;91.90;;;;;;5042842;28;20417;-73
2023/08/26 08:31:11;;;;;;;9.18;7.07;;;17.40;92.90;;;;;;5039757;28;20021;-73
2023/08/26 08:33:37;;;;;;;10.52;6.90;;;17.40;93.40;;;;;;5022042;28;20021;-73
2023/08/26 08:36:03;;;;;;;11.77;7.03;;;17.30;93.90;;;;;;5041362;28;20159;-72
2023/08/26 08:38:29;;;;;;;10.73;6.65;;;17.10;93.70;;;;;;5031398;28;20470;-73
2023/08/26 08:40:54;;;;;;;11.85;7.32;;;17.00;94.00;;;;;;5039708;28;20039;-72
2023/08/26 08:43:21;;;;;;;11.18;5.85;;;17.00;94.20;;;;;;5024296;28;20028;-73
2023/08/26 08:45:47;;;;;;;8.98;6.20;;;16.90;93.70;;;;;;5020059;28;20038;-73
2023/08/26 08:48:13;;;;;;;11.23;6.93;;;17.00;94.00;;;;;;5034854;28;20030;-73
2023/08/26 08:50:39;;;;;;;13.38;6.97;;;17.10;94.90;;;;;;5028891;28;20023;-73
2023/08/26 08:53:05;;;;;;;12.75;6.93;;;17.10;94.60;;;;;;5032435;28;20105;-73
2023/08/26 08:55:32;;;;;;;10.32;6.03;;;17.30;94.20;;;;;;5029782;28;20041;-73
2023/08/26 08:57:59;;;;;;;11.52;5.30;;;17.40;93.10;;;;;;5031989;28;20029;-73
2023/08/26 09:00:26;;;;;;;9.10;5.38;;;17.70;93.80;;;;;;5023800;28;20070;-73
2023/08/26 09:02:53;;;;;;;10.55;5.13;;;17.80;92.30;;;;;;5018899;28;20473;-70
2023/08/26 09:05:19;;;;;;;8.07;4.72;;;17.80;91.90;;;;;;5025612;28;20088;-70
2023/08/26 09:07:48;;;;;;;8.90;4.65;;;17.90;91.70;;;;;;5014518;28;20041;-70
2023/08/26 09:10:15;;;;;;;10.40;5.22;;;18.00;91.00;;;;;;5022742;28;20355;-72
2023/08/26 09:12:40;;;;;;;8.23;4.70;;;18.00;90.90;;;;;;5028929;28;20056;-72
2023/08/26 09:15:06;;;;;;;11.45;5.10;;;18.30;91.00;;;;;;5022086;28;20490;-71
2023/08/26 09:17:33;;;;;;;14.00;5.07;;;18.60;91.30;;;;;;5038762;28;20037;-70
2023/08/26 09:20:00;;;;;;;12.13;4.93;;;18.80;90.30;;;;;;5042413;28;20029;-69
2023/08/26 09:22:30;;;;;;;10.52;4.47;;;18.70;89.80;;;;;;5026280;28;20044;-69
2023/08/26 09:24:57;;;;;;;9.03;4.57;;;18.60;89.80;;;;;;5022098;28;20081;-70
2023/08/26 09:27:23;;;;;;;8.63;4.07;;;18.50;89.60;;;;;;5031305;28;20030;-71
2023/08/26 09:29:49;;;;;;;9.73;4.25;;;18.60;90.40;;;;;;5039828;28;20055;-69
2023/08/26 09:32:15;;;;;;;7.57;3.67;;;18.70;89.90;;;;;;5035163;28;20110;-69
2023/08/26 09:34:40;;;;;;;7.45;3.70;;;19.00;89.70;;;;;;5026602;28;20508;-71
2023/08/26 09:37:09;;;;;;;12.38;3.83;;;19.00;88.80;;;;;;5017073;28;20060;-69
2023/08/26 09:39:45;;;;;;;7.30;3.72;;;19.40;89.20;;;;;;5031810;28;20116;-69
2023/08/26 09:42:10;;;;;;;8.68;2.60;;;19.50;87.90;;;;;;5029733;28;20029;-70
2023/08/26 09:44:36;;;;;;;4.80;1.80;;;19.60;86.00;;;;;;5025196;28;20470;-70
2023/08/26 09:47:02;;;;;;;3.75;1.33;;;19.60;82.40;;;;;;5024060;28;20033;-70
2023/08/26 09:49:27;;;;;;;4.55;1.40;;;19.70;78.30;;;;;;5026370;28;20030;-70
2023/08/26 09:51:53;;;;;;;5.85;1.02;;;19.90;78.20;;;;;;5017364;28;20380;-74
2023/08/26 09:54:21;;;;;;;2.97;1.20;;;20.00;74.00;;;;;;5023936;28;20025;-76
2023/08/26 09:56:50;;;;;;;4.68;1.58;;;20.00;73.90;;;;;;5023229;28;20105;-74
2023/08/26 09:59:17;;;;;;;3.55;1.70;;;19.90;75.70;;;;;;5018083;28;20030;-72
2023/08/26 10:01:43;;;;;;;4.90;1.98;;;20.00;76.50;;;;;;5025798;28;20040;-71
2023/08/26 10:04:10;;;;;;;5.55;1.80;;;19.80;73.90;;;;;;5025973;28;20033;-73
2023/08/26 10:07:03;;;;;;;4.45;1.65;;;19.90;74.10;;;;;;5024774;28;20119;-69
2023/08/26 10:09:55;;;;;;;2.67;1.23;;;19.80;74.50;;;;;;5019988;28;20046;-69
2023/08/26 10:12:43;;;;;;;1.90;1.20;;;19.90;75.30;;;;;;5029312;28;20426;-72
2023/08/26 10:15:12;;;;;;;4.57;1.27;;;20.20;72.30;;;;;;5025005;28;20022;-72
2023/08/26 10:17:40;;;;;;;2.53;1.17;;;20.20;73.30;;;;;;5023315;28;20026;-74
2023/08/26 10:20:07;;;;;;;2.58;0.93;;;19.60;68.90;;;;;;5025121;28;20029;-71
2023/08/26 10:22:33;;;;;;;2.83;0.98;;;19.40;71.20;;;;;;5018099;28;20037;-74
2023/08/26 10:24:59;;;;;;;1.85;0.80;;;19.40;70.60;;;;;;5031477;28;20059;-72
2023/08/26 10:27:25;;;;;;;4.70;1.30;;;19.20;68.90;;;;;;5025129;28;20087;-74
2023/08/26 10:29:51;;;;;;;4.47;1.15;;;19.20;70.70;;;;;;5016301;28;20427;-72
2023/08/26 10:32:18;;;;;;;1.67;0.70;;;19.00;70.40;;;;;;5024568;28;20114;-71
2023/08/26 10:34:54;;;;;;;4.70;1.10;;;19.00;71.90;;;;;;5021588;28;20005;-72
2023/08/26 10:37:23;;;;;;;6.78;2.13;;;19.10;73.50;;;;;;5015659;28;20034;-72
2023/08/26 10:39:48;;;;;;;5.15;3.17;;;19.30;77.60;;;;;;5022452;28;20045;-71
2023/08/26 10:42:18;;;;;;;6.18;3.47;;;19.20;81.80;;;;;;5021782;28;20351;-71
2023/08/26 10:45:04;;;;;;;9.15;3.50;;;19.40;82.00;;;;;;5016377;28;20128;-71
2023/08/26 10:47:38;;;;;;;7.38;3.13;;;19.40;82.10;;;;;;5025346;28;20030;-70
2023/08/26 10:50:22;;;;;;;6.97;2.83;;;19.50;81.90;;;;;;5028600;28;20024;-69
2023/08/26 10:52:53;;;;;;;6.78;3.45;;;19.50;80.60;;;;;;5018361;28;20034;-71
2023/08/26 10:55:23;;;;;;;7.43;3.90;;;19.50;81.90;;;;;;5019865;28;20485;-70
2023/08/26 10:58:08;;;;;;;6.03;4.22;;;19.40;83.30;;;;;;5022319;28;20481;-71
2023/08/26 11:00:34;;;;;;;9.32;4.47;;;19.10;84.10;;;;;;5018113;28;20021;-70
2023/08/26 11:03:03;;;;;;;10.88;5.50;;;19.00;84.50;;;;;;5024646;28;20055;-69
2023/08/26 11:05:28;;;;;;;9.80;5.97;;;18.70;85.30;;;;;;5020284;28;20026;-69
2023/08/26 11:07:56;;;;;;;10.50;6.15;;;18.50;86.50;;;;;;5015550;28;20036;-73
2023/08/26 11:10:29;;;;;;;10.43;7.03;;;18.50;86.90;;;;;;5027319;28;20075;-69
2023/08/26 11:12:55;;;;;;;8.68;6.35;;;18.50;87.50;;;;;;5029875;28;20561;-70
2023/08/26 11:15:21;;;;;;;9.43;7.20;;;18.20;86.60;;;;;;5024547;28;20022;-69
2023/08/26 11:17:50;;;;;;;12.15;7.82;;;18.20;87.40;;;;;;5036708;28;20049;-68
2023/08/26 11:20:16;;;;;;;9.93;7.32;;;18.00;87.60;;;;;;5020919;28;20025;-69
2023/08/26 11:22:42;;;;;;;13.60;8.18;;;17.80;88.30;;;;;;5019624;28;20116;-69
2023/08/26 11:25:11;;;;;;;11.45;7.68;;;17.60;88.60;;;;;;5018267;28;20557;-69
2023/08/26 11:27:37;;;;;;;11.65;7.88;;;17.30;89.80;;;;;;5025832;28;20037;-69
2023/08/26 11:30:08;;;;;;;10.13;7.68;;;17.30;90.20;;;;;;5015594;28;20050;-69
2023/08/26 11:32:36;;;;;;;11.82;7.80;;;17.20;90.00;;;;;;5023991;28;20053;-68
2023/08/26 11:35:02;;;;;;;10.40;7.63;;;17.20;90.00;;;;;;5024899;28;20433;-69
2023/08/26 11:37:34;;;;;;;10.18;7.88;;;17.30;89.40;;;;;;5026034;28;20057;-68
2023/08/26 11:40:06;;;;;;;11.15;8.45;;;17.20;88.60;;;;;;5018262;28;20025;-68
2023/08/26 11:42:32;;;;;;;14.23;8.80;;;17.20;88.20;;;;;;5024417;28;20033;-68
2023/08/26 11:44:57;;;;;;;12.25;8.38;;;17.30;88.00;;;;;;5014528;28;20033;-69
2023/08/26 11:47:24;;;;;;;12.23;8.93;;;17.50;88.70;;;;;;5016614;28;20045;-68
2023/08/26 11:49:53;;;;;;;12.20;8.63;;;17.60;88.00;;;;;;5019645;28;20714;-68
2023/08/26 11:52:18;;;;;;;13.23;9.38;;;17.60;88.00;;;;;;5022252;28;20022;-69
2023/08/26 11:54:44;;;;;;;11.98;9.73;;;17.50;88.90;;;;;;5029916;28;20474;-68
2023/08/26 11:57:12;;;;;;;15.00;9.90;;;17.50;88.70;;;;;;5024420;28;20029;-69
2023/08/26 11:59:38;;;;;;;15.63;9.88;;;17.50;88.90;;;;;;5023511;28;20093;-68
2023/08/26 12:02:21;;;;;;;14.80;9.93;;;17.70;88.70;;;;;;5032888;28;20377;-71
2023/08/26 12:04:54;;;;;;;16.88;10.05;;;18.00;88.10;;;;;;5032293;28;20033;-69
2023/08/26 12:07:20;;;;;;;13.25;9.40;;;18.20;87.70;;;;;;5032205;28;20029;-68
2023/08/26 12:09:45;;;;;;;14.55;9.68;;;18.50;87.00;;;;;;5023846;28;20026;-70
2023/08/26 12:12:11;;;;;;;13.18;8.60;;;19.40;85.60;;;;;;5027468;28;20030;-72
2023/08/26 12:14:36;;;;;;;15.07;8.40;;;20.00;83.30;;;;;;5021060;28;20397;-71
2023/08/26 12:17:03;;;;;;;13.10;7.90;;;20.40;81.40;;;;;;5029277;28;20037;-69
2023/08/26 12:19:33;;;;;;;9.27;6.00;;;20.60;77.90;;;;;;5030897;28;20032;-70
2023/08/26 12:21:59;;;;;;;9.27;5.20;;;20.50;78.20;;;;;;5027006;28;20109;-69
2023/08/26 12:24:24;;;;;;;10.40;4.75;;;20.50;77.80;;;;;;5027936;28;20410;-69
2023/08/26 12:26:51;;;;;;;7.88;3.72;;;20.30;77.00;;;;;;5026442;28;20025;-70
2023/08/26 12:29:16;;;;;;;7.28;3.85;;;20.20;75.90;;;;;;5030790;28;20564;-69
2023/08/26 12:31:43;;;;;;;6.55;4.43;;;20.20;77.20;;;;;;5028978;28;20028;-70